createdAt,value
2023-02-14T00:09:52.665Z,103034.41
2023-02-14T00:19:54.142Z,103034.00
2023-02-14T00:29:58.193Z,103038.84
2023-02-14T00:40:18.542Z,103030.81
2023-02-14T00:50:19.969Z,103034.81
2023-02-14T01:00:21.793Z,103034.69
2023-02-14T01:10:23.243Z,103039.16
2023-02-14T01:20:25.283Z,103046.84
2023-02-14T01:30:26.862Z,103029.00
2023-02-14T01:40:28.372Z,103032.31
2023-02-14T01:50:36.568Z,103024.97
2023-02-14T02:00:59.450Z,103018.53
2023-02-14T02:11:01.652Z,103011.19
2023-02-14T02:21:31.330Z,103016.72
2023-02-14T02:31:54.180Z,102994.78
2023-02-14T02:41:58.510Z,102981.81
2023-02-14T02:52:19.700Z,102983.97
2023-02-14T03:02:28.454Z,102975.94
2023-02-14T03:12:45.233Z,102980.38
2023-02-14T03:22:57.049Z,102979.09
2023-02-14T03:33:05.931Z,102986.28
2023-02-14T03:43:14.874Z,102992.91
2023-02-14T03:53:22.132Z,102999.28
2023-02-14T04:03:27.453Z,102993.88
2023-02-14T04:13:29.154Z,102985.84
2023-02-14T04:23:30.674Z,102993.78
2023-02-14T04:33:32.803Z,102984.63
2023-02-14T04:43:34.240Z,102984.59
2023-02-14T04:53:40.098Z,102972.19
2023-02-14T05:03:41.571Z,102963.47
2023-02-14T05:13:42.915Z,102968.34
2023-02-14T05:23:54.241Z,102952.31
2023-02-14T05:33:55.644Z,102942.78
2023-02-14T05:43:57.226Z,102939.13
2023-02-14T05:54:00.168Z,102936.53
2023-02-14T06:04:01.769Z,102947.00
2023-02-14T06:14:03.280Z,102954.13
2023-02-14T06:24:04.983Z,102946.75
2023-02-14T06:34:06.427Z,102966.41
2023-02-14T06:44:10.418Z,102973.75
2023-02-14T06:54:11.979Z,102985.59
2023-02-14T07:04:13.540Z,102981.19
2023-02-14T07:14:15.057Z,102977.69
2023-02-14T07:24:16.477Z,102963.50
2023-02-14T07:34:17.936Z,102986.03
2023-02-14T07:44:19.623Z,102974.88
2023-02-14T07:54:21.309Z,102980.75
2023-02-14T08:04:25.959Z,102990.00
2023-02-14T08:14:27.345Z,102985.19
2023-02-14T08:24:29.184Z,102981.56
2023-02-14T08:34:30.606Z,102978.34
2023-02-14T08:44:32.428Z,102979.13
2023-02-14T08:54:33.896Z,102978.88
2023-02-14T09:04:35.833Z,102982.75
2023-02-14T09:14:40.239Z,102973.81
2023-02-14T09:24:41.663Z,102962.44
2023-02-14T09:35:01.754Z,102934.81
2023-02-14T09:45:18.266Z,102931.50
2023-02-14T09:55:20.005Z,102926.78
2023-02-14T10:05:26.467Z,102925.00
2023-02-14T10:15:50.907Z,102929.38
2023-02-14T10:25:59.957Z,102925.31
2023-02-14T10:36:18.358Z,102924.91
2023-02-14T10:47:01.307Z,102911.69
2023-02-14T10:57:09.397Z,102900.69
2023-02-14T11:07:14.955Z,102887.03
2023-02-14T11:17:31.624Z,102877.19
2023-02-14T11:27:33.452Z,102875.34
2023-02-14T11:37:51.643Z,102876.50
2023-02-14T11:48:22.043Z,102859.69
2023-02-14T11:58:40.465Z,102834.13
2023-02-14T12:08:43.192Z,102818.06
2023-02-14T12:18:56.139Z,102805.03
2023-02-14T12:29:09.861Z,102789.31
2023-02-14T12:39:23.494Z,102771.56
2023-02-14T12:49:36.611Z,102765.81
2023-02-14T12:59:40.960Z,102760.59
2023-02-14T13:09:47.659Z,102744.00
2023-02-14T13:20:19.879Z,102739.19
2023-02-14T13:30:29.543Z,102723.00
2023-02-14T13:40:33.230Z,102717.13
2023-02-14T13:50:52.420Z,102706.00
2023-02-14T14:00:54.598Z,102701.38
2023-02-14T14:11:02.249Z,102681.75
2023-02-14T14:21:16.098Z,102676.03
2023-02-14T14:31:21.044Z,102661.94
2023-02-14T14:41:31.214Z,102658.16
2023-02-14T14:51:35.828Z,102642.69
2023-02-14T15:01:40.113Z,102636.91
2023-02-14T15:12:01.124Z,102619.56
2023-02-14T15:22:18.175Z,102610.00
2023-02-14T15:32:20.026Z,102605.38
2023-02-14T15:42:32.494Z,102611.09
2023-02-14T15:52:34.054Z,102602.63
2023-02-14T16:02:40.271Z,102611.09
2023-02-14T16:12:53.922Z,102610.69
2023-02-14T16:23:19.675Z,102617.22
2023-02-14T16:33:33.661Z,102606.59
2023-02-14T16:43:35.378Z,102613.94
2023-02-14T16:53:37.251Z,102613.44
2023-02-14T17:03:39.990Z,102623.50
2023-02-14T17:13:44.560Z,102620.13
2023-02-14T17:23:46.254Z,102643.41
2023-02-14T17:33:48.692Z,102642.38
2023-02-14T17:43:51.828Z,102658.16
2023-02-14T17:53:53.293Z,102637.59
2023-02-14T18:03:55.073Z,102641.28
2023-02-14T18:13:59.229Z,102631.69
2023-02-14T18:24:03.802Z,102624.94
2023-02-14T18:34:05.805Z,102632.66
2023-02-14T18:44:07.451Z,102619.31
2023-02-14T18:54:09.511Z,102612.91
2023-02-14T19:04:12.203Z,102604.78
2023-02-14T19:14:13.739Z,102596.28
2023-02-14T19:24:16.801Z,102588.84
2023-02-14T19:34:31.749Z,102579.19
2023-02-14T19:44:33.396Z,102585.44
2023-02-14T19:54:38.491Z,102574.22
2023-02-14T20:04:40.112Z,102560.81
2023-02-14T20:14:50.970Z,102562.81
2023-02-14T20:24:53.479Z,102565.03
2023-02-14T20:34:54.879Z,102556.63
2023-02-14T20:44:56.646Z,102554.22
2023-02-14T20:54:58.038Z,102555.00
2023-02-14T21:05:00.155Z,102559.75
2023-02-14T21:15:01.710Z,102549.19
2023-02-14T21:25:04.100Z,102557.75
2023-02-14T21:35:05.788Z,102547.31
2023-02-14T21:45:26.187Z,102537.84
2023-02-14T21:55:27.864Z,102530.22
2023-02-14T22:05:29.957Z,102529.50
2023-02-14T22:15:31.478Z,102526.97
2023-02-14T22:25:33.382Z,102519.34
2023-02-14T22:35:34.737Z,102516.22
2023-02-14T22:45:36.126Z,102512.34
2023-02-14T22:55:37.600Z,102513.69
2023-02-14T23:05:39.092Z,102504.28
2023-02-14T23:15:59.587Z,102496.69
2023-02-14T23:26:01.475Z,102501.34
2023-02-14T23:36:04.205Z,102489.22
2023-02-14T23:46:05.802Z,102485.63
2023-02-14T23:56:07.246Z,102491.41
